Time;durP1;ratioP1;P1;durP2;ratioP2;P2;SDS_P1;SDS_P2;PMS_P1;PMS_P2;Temp;Humidity;BMP_temperature;BMP_pressure;BME280_temperature;BME280_humidity;BME280_pressure;Samples;Min_cycle;Max_cycle;Signal;HPM_P1;HPM_P2
2023/09/21 00:01:28;;;;;;;2.83;2.10;;;;;;;;;;5013497;28;20210;-79
2023/09/21 00:03:56;;;;;;;4.43;2.17;;;;;;;;;;4996894;28;20327;-81
2023/09/21 00:06:23;;;;;;;2.25;1.85;;;;;;;;;;5003714;28;20235;-79
2023/09/21 00:08:52;;;;;;;2.45;1.90;;;;;;;;;;5022116;28;20207;-80
2023/09/21 00:11:20;;;;;;;3.22;2.10;;;;;;;;;;5001434;28;20204;-79
2023/09/21 00:13:48;;;;;;;3.30;2.33;;;;;;;;;;5022420;28;20261;-79
2023/09/21 00:16:18;;;;;;;2.38;2.17;;;;;;;;;;5015303;28;20275;-80
2023/09/21 00:18:46;;;;;;;2.42;2.22;;;;;;;;;;5020507;28;20222;-80
2023/09/21 00:21:15;;;;;;;2.45;2.25;;;;;;;;;;5018222;28;20211;-79
2023/09/21 00:23:44;;;;;;;11.82;7.90;;;;;;;;;;5001483;28;20318;-79
2023/09/21 00:26:12;;;;;;;7.00;4.45;;;;;;;;;;5020028;28;20264;-80
2023/09/21 00:28:40;;;;;;;3.20;2.90;;;;;;;;;;5019949;28;20203;-78
2023/09/21 00:31:08;;;;;;;3.00;2.70;;;;;;;;;;5020440;28;20204;-78
2023/09/21 00:33:36;;;;;;;2.67;2.47;;;;;;;;;;5003481;28;20257;-80
2023/09/21 00:36:04;;;;;;;3.42;2.40;;;;;;;;;;5021948;28;20192;-80
2023/09/21 00:38:32;;;;;;;3.65;2.50;;;;;;;;;;5020627;28;20595;-78
2023/09/21 00:41:07;;;;;;;13.60;7.93;;;;;;;;;;5018360;28;20291;-79
2023/09/21 00:43:35;;;;;;;6.78;4.47;;;;;;;;;;5022095;28;20258;-80
2023/09/21 00:46:03;;;;;;;6.28;3.83;;;;;;;;;;5018778;28;20684;-79
2023/09/21 00:48:38;;;;;;;5.82;4.10;;;;;;;;;;5002447;28;20246;-80
2023/09/21 00:51:09;;;;;;;4.45;2.95;;;;;;;;;;5018942;28;20261;-78
2023/09/21 00:53:39;;;;;;;2.90;2.33;;;;;;;;;;5014032;28;20235;-80
2023/09/21 00:56:09;;;;;;;3.08;2.75;;;;;;;;;;5018734;28;20258;-79
2023/09/21 00:58:42;;;;;;;3.35;2.53;;;;;;;;;;4996590;28;20211;-80
2023/09/21 01:01:18;;;;;;;4.65;2.53;;;;;;;;;;5006190;28;20219;-80
2023/09/21 01:03:46;;;;;;;3.15;2.65;;;;;;;;;;5011469;28;20235;-80
2023/09/21 01:06:16;;;;;;;3.63;2.85;;;;;;;;;;5019130;28;20267;-78
2023/09/21 01:08:44;;;;;;;6.90;3.00;;;;;;;;;;5017233;28;20269;-80
2023/09/21 01:11:14;;;;;;;4.45;3.15;;;;;;;;;;5018638;28;20211;-79
2023/09/21 01:13:42;;;;;;;2.45;2.30;;;;;;;;;;5020958;28;20228;-80
2023/09/21 01:16:12;;;;;;;2.30;2.10;;;;;;;;;;5021298;28;20294;-79
2023/09/21 01:18:40;;;;;;;3.40;2.00;;;;;;;;;;5019263;28;20218;-79
2023/09/21 01:21:10;;;;;;;3.08;2.10;;;;;;;;;;5019966;28;20424;-80
2023/09/21 01:23:41;;;;;;;2.60;2.40;;;;;;;;;;5018896;28;20242;-80
2023/09/21 01:26:10;;;;;;;2.50;2.30;;;;;;;;;;5003178;28;20202;-80
2023/09/21 01:28:38;;;;;;;8.40;5.40;;;;;;;;;;5002486;28;20207;-80
2023/09/21 01:31:05;;;;;;;5.47;4.07;;;;;;;;;;5000416;28;20201;-79
2023/09/21 01:33:33;;;;;;;4.20;2.45;;;;;;;;;;5020233;28;20710;-79
2023/09/21 01:36:00;;;;;;;9.32;6.05;;;;;;;;;;5016693;28;20212;-79
2023/09/21 01:38:28;;;;;;;7.90;5.30;;;;;;;;;;5018863;28;20215;-78
2023/09/21 01:40:59;;;;;;;3.67;3.10;;;;;;;;;;5017692;28;20225;-80
2023/09/21 01:43:26;;;;;;;4.00;2.50;;;;;;;;;;5003469;28;20314;-79
2023/09/21 01:45:54;;;;;;;2.78;2.58;;;;;;;;;;5020959;28;20230;-81
2023/09/21 01:48:22;;;;;;;3.10;2.78;;;;;;;;;;5017661;28;20230;-80
2023/09/21 01:50:50;;;;;;;2.70;2.50;;;;;;;;;;5000814;28;20250;-80
2023/09/21 01:53:22;;;;;;;2.63;2.42;;;;;;;;;;5012592;28;20227;-79
2023/09/21 01:55:50;;;;;;;2.90;2.70;;;;;;;;;;5018300;28;20207;-79
2023/09/21 01:58:19;;;;;;;2.90;2.60;;;;;;;;;;5005418;28;20269;-78
2023/09/21 02:00:47;;;;;;;2.47;2.33;;;;;;;;;;5017815;28;20208;-80
2023/09/21 02:03:17;;;;;;;4.70;4.30;;;;;;;;;;5019473;28;20234;-80
2023/09/21 02:05:48;;;;;;;5.70;5.20;;;;;;;;;;5001645;28;20258;-80
2023/09/21 02:08:19;;;;;;;8.98;5.95;;;;;;;;;;5021079;28;20238;-80
2023/09/21 02:10:52;;;;;;;8.98;6.10;;;;;;;;;;5002191;28;20656;-80
2023/09/21 02:13:20;;;;;;;4.78;4.30;;;;;;;;;;5019021;28;20227;-79
2023/09/21 02:15:51;;;;;;;5.65;3.20;;;;;;;;;;5018894;28;20211;-80
2023/09/21 02:18:20;;;;;;;4.07;3.30;;;;;;;;;;5018573;28;20251;-80
2023/09/21 02:20:55;;;;;;;4.30;3.22;;;;;;;;;;5013055;28;20204;-80
2023/09/21 02:23:26;;;;;;;3.35;3.05;;;;;;;;;;5019194;28;20234;-80
2023/09/21 02:25:53;;;;;;;3.08;2.78;;;;;;;;;;5018279;28;20211;-79
2023/09/21 02:28:22;;;;;;;3.45;3.15;;;;;;;;;;5018531;28;20214;-80
2023/09/21 02:30:51;;;;;;;3.35;3.10;;;;;;;;;;5017821;28;20290;-80
2023/09/21 02:33:19;;;;;;;2.88;2.63;;;;;;;;;;5011626;28;20255;-80
2023/09/21 02:35:47;;;;;;;3.00;2.42;;;;;;;;;;5018863;28;20271;-80
2023/09/21 02:38:20;;;;;;;2.33;2.20;;;;;;;;;;5003784;28;20299;-80
2023/09/21 02:40:48;;;;;;;2.78;2.22;;;;;;;;;;5000436;28;20253;-80
2023/09/21 02:43:16;;;;;;;2.50;2.30;;;;;;;;;;5016840;28;20219;-78
2023/09/21 02:45:47;;;;;;;3.25;2.20;;;;;;;;;;5017844;28;20204;-78
2023/09/21 02:48:15;;;;;;;2.20;2.10;;;;;;;;;;5017336;28;20557;-79
2023/09/21 02:50:47;;;;;;;4.70;2.30;;;;;;;;;;5011308;28;20628;-80
2023/09/21 02:53:14;;;;;;;2.05;1.95;;;;;;;;;;5009297;28;20223;-78
2023/09/21 02:55:45;;;;;;;3.20;2.22;;;;;;;;;;5014394;28;20211;-78
2023/09/21 02:58:13;;;;;;;2.33;2.10;;;;;;;;;;5014229;28;20216;-80
2023/09/21 03:00:45;;;;;;;2.47;2.28;;;;;;;;;;5014528;28;20223;-79
2023/09/21 03:03:14;;;;;;;2.40;2.30;;;;;;;;;;5018277;28;20223;-78
2023/09/21 03:05:47;;;;;;;2.55;2.35;;;;;;;;;;5019742;28;20216;-80
2023/09/21 03:08:18;;;;;;;4.28;2.63;;;;;;;;;;5001771;28;20207;-80
2023/09/21 03:10:49;;;;;;;3.28;2.50;;;;;;;;;;5019565;28;20283;-80
2023/09/21 03:13:18;;;;;;;9.93;5.70;;;;;;;;;;5019578;28;20223;-80
2023/09/21 03:15:51;;;;;;;10.07;5.63;;;;;;;;;;5019183;28;20235;-79
2023/09/21 03:18:19;;;;;;;4.47;3.50;;;;;;;;;;5010265;28;20270;-79
2023/09/21 03:20:48;;;;;;;2.90;2.65;;;;;;;;;;5018892;28;20294;-80
2023/09/21 03:23:16;;;;;;;3.35;2.70;;;;;;;;;;5019160;28;20609;-80
2023/09/21 03:25:47;;;;;;;6.78;4.47;;;;;;;;;;5019182;28;20251;-79
2023/09/21 03:28:16;;;;;;;3.80;3.22;;;;;;;;;;5017226;28;20269;-80
2023/09/21 03:30:45;;;;;;;7.20;4.60;;;;;;;;;;5017976;28;20203;-78
2023/09/21 03:33:14;;;;;;;16.15;8.80;;;;;;;;;;5010064;28;20319;-79
2023/09/21 03:35:42;;;;;;;17.60;7.88;;;;;;;;;;5022011;28;20298;-78
2023/09/21 03:38:12;;;;;;;35.42;16.27;;;;;;;;;;5024901;28;20219;-81
2023/09/21 03:40:40;;;;;;;35.78;15.80;;;;;;;;;;5020952;28;20290;-79
2023/09/21 03:43:10;;;;;;;20.60;10.15;;;;;;;;;;5019935;28;20750;-79
2023/09/21 03:45:41;;;;;;;12.15;6.55;;;;;;;;;;5022688;28;20646;-78
2023/09/21 03:48:10;;;;;;;3.88;3.47;;;;;;;;;;5022055;28;20204;-81
2023/09/21 03:50:38;;;;;;;5.30;3.17;;;;;;;;;;5022738;28;20247;-79
2023/09/21 03:53:08;;;;;;;5.47;3.85;;;;;;;;;;5022420;28;20223;-80
2023/09/21 03:55:37;;;;;;;3.70;3.00;;;;;;;;;;5006630;28;20559;-80
2023/09/21 03:58:05;;;;;;;3.03;2.50;;;;;;;;;;5022459;28;20211;-79
2023/09/21 04:03:04;;;;;;;3.55;2.78;;;;;;;;;;5018050;28;20310;-78
2023/09/21 04:05:33;;;;;;;9.15;3.97;;;;;;;;;;5021487;28;20251;-78
2023/09/21 04:08:01;;;;;;;3.10;2.80;;;;;;;;;;5019305;28;20203;-78
2023/09/21 04:10:30;;;;;;;2.83;2.50;;;;;;;;;;5015298;28;20207;-79
2023/09/21 04:12:57;;;;;;;3.63;3.30;;;;;;;;;;5020363;28;20235;-80
2023/09/21 04:15:26;;;;;;;6.82;3.55;;;;;;;;;;5018736;28;20208;-79
2023/09/21 04:17:53;;;;;;;8.77;5.18;;;;;;;;;;5001784;28;20204;-78
2023/09/21 04:20:21;;;;;;;8.07;4.97;;;;;;;;;;5019238;28;20223;-79
2023/09/21 04:22:51;;;;;;;7.28;4.72;;;;;;;;;;5017154;28;20220;-80
2023/09/21 04:25:19;;;;;;;6.22;4.30;;;;;;;;;;5011119;28;20692;-80
2023/09/21 04:27:48;;;;;;;10.25;4.25;;;;;;;;;;5011308;28;20205;-79
2023/09/21 04:30:16;;;;;;;9.38;5.28;;;;;;;;;;5017675;28;20206;-79
2023/09/21 04:32:46;;;;;;;6.15;4.18;;;;;;;;;;5019811;28;20215;-78
2023/09/21 04:35:15;;;;;;;6.18;4.05;;;;;;;;;;5018540;28;20207;-79
2023/09/21 04:37:46;;;;;;;6.10;4.35;;;;;;;;;;5017023;28;20278;-78
2023/09/21 04:40:14;;;;;;;6.63;3.65;;;;;;;;;;5002697;28;20199;-80
2023/09/21 04:42:42;;;;;;;3.90;3.17;;;;;;;;;;5019334;28;20223;-78
2023/09/21 04:45:11;;;;;;;5.28;3.20;;;;;;;;;;5016294;28;20280;-79
2023/09/21 04:47:40;;;;;;;5.53;3.40;;;;;;;;;;4992552;28;20196;-80
2023/09/21 04:50:10;;;;;;;3.67;2.85;;;;;;;;;;4996860;28;20232;-79
2023/09/21 04:52:37;;;;;;;4.03;2.83;;;;;;;;;;4989268;28;20696;-78
2023/09/21 04:55:08;;;;;;;3.35;2.90;;;;;;;;;;5000991;28;20575;-77
2023/09/21 04:57:36;;;;;;;5.18;3.25;;;;;;;;;;5009086;28;20208;-78
2023/09/21 05:00:07;;;;;;;4.03;2.90;;;;;;;;;;5007433;28;20211;-80
2023/09/21 05:02:34;;;;;;;3.92;3.13;;;;;;;;;;4998681;28;20282;-78
2023/09/21 05:05:02;;;;;;;4.85;3.22;;;;;;;;;;4999239;28;20282;-78
2023/09/21 05:07:30;;;;;;;4.22;2.60;;;;;;;;;;5005959;28;20200;-79
2023/09/21 05:09:57;;;;;;;2.83;2.50;;;;;;;;;;5017452;28;20203;-79
2023/09/21 05:12:27;;;;;;;3.05;2.50;;;;;;;;;;5008874;28;20212;-79
2023/09/21 05:14:55;;;;;;;5.93;3.13;;;;;;;;;;5009140;28;20637;-79
2023/09/21 05:17:22;;;;;;;3.47;2.80;;;;;;;;;;5004232;28;20212;-79
2023/09/21 05:19:50;;;;;;;4.72;2.53;;;;;;;;;;5017142;28;20576;-79
2023/09/21 05:22:18;;;;;;;6.78;3.00;;;;;;;;;;4997652;28;20208;-79
2023/09/21 05:24:45;;;;;;;2.58;2.38;;;;;;;;;;5008782;28;20220;-77
2023/09/21 05:27:12;;;;;;;2.85;2.55;;;;;;;;;;5004448;28;20262;-79
2023/09/21 05:29:40;;;;;;;2.72;2.40;;;;;;;;;;4997585;28;20208;-80
2023/09/21 05:32:09;;;;;;;3.53;2.42;;;;;;;;;;5006747;28;20203;-79
2023/09/21 05:34:36;;;;;;;2.70;2.50;;;;;;;;;;5012663;28;20204;-78
2023/09/21 05:37:04;;;;;;;3.30;2.67;;;;;;;;;;5013265;28;20215;-80
2023/09/21 05:39:31;;;;;;;3.92;2.30;;;;;;;;;;5018312;28;20207;-78
2023/09/21 05:41:58;;;;;;;4.57;2.72;;;;;;;;;;5018032;28;20204;-80
2023/09/21 05:44:46;;;;;;;2.85;2.25;;;;;;;;;;5001469;28;20231;-79
2023/09/21 05:47:30;;;;;;;4.65;2.42;;;;;;;;;;5007463;28;20211;-78
2023/09/21 05:49:57;;;;;;;3.40;2.50;;;;;;;;;;4993436;28;20212;-79
2023/09/21 05:52:25;;;;;;;3.65;2.30;;;;;;;;;;5014199;28;20201;-79
2023/09/21 05:54:53;;;;;;;4.03;2.63;;;;;;;;;;5006858;28;20214;-80
2023/09/21 05:57:21;;;;;;;3.88;2.22;;;;;;;;;;4996347;28;20204;-78
2023/09/21 05:59:50;;;;;;;2.78;2.58;;;;;;;;;;4999391;28;20703;-78
2023/09/21 06:02:17;;;;;;;3.70;2.55;;;;;;;;;;5014226;28;20211;-79
2023/09/21 06:04:46;;;;;;;4.15;2.30;;;;;;;;;;5008096;28;20223;-80
2023/09/21 06:07:14;;;;;;;3.08;2.35;;;;;;;;;;5016329;28;20203;-79
2023/09/21 06:09:45;;;;;;;5.47;2.40;;;;;;;;;;5007526;28;20204;-79
2023/09/21 06:12:13;;;;;;;7.32;2.58;;;;;;;;;;5009785;28;20207;-79
2023/09/21 06:14:43;;;;;;;6.28;2.85;;;;;;;;;;5002560;28;20212;-80
2023/09/21 06:17:13;;;;;;;10.82;2.75;;;;;;;;;;5007255;28;20297;-79
2023/09/21 06:19:41;;;;;;;6.90;2.80;;;;;;;;;;4995818;28;20210;-79
2023/09/21 06:22:09;;;;;;;5.35;3.03;;;;;;;;;;4996554;28;20402;-79
2023/09/21 06:24:37;;;;;;;3.95;2.47;;;;;;;;;;5005813;28;20232;-77
2023/09/21 06:27:05;;;;;;;5.10;2.50;;;;;;;;;;5011965;28;20667;-78
2023/09/21 06:29:32;;;;;;;2.40;2.20;;;;;;;;;;5009616;28;20212;-80
2023/09/21 06:32:07;;;;;;;2.85;2.08;;;;;;;;;;4991477;28;20211;-78
2023/09/21 06:34:41;;;;;;;2.85;2.50;;;;;;;;;;5017928;28;20209;-80
2023/09/21 06:37:11;;;;;;;2.78;2.20;;;;;;;;;;5005360;28;20211;-79
2023/09/21 06:39:38;;;;;;;4.90;2.35;;;;;;;;;;5012803;28;20659;-79
2023/09/21 06:42:06;;;;;;;2.25;2.15;;;;;;;;;;5000722;28;20204;-77
2023/09/21 06:44:33;;;;;;;5.20;2.53;;;;;;;;;;5007736;28;20261;-77
2023/09/21 06:47:01;;;;;;;6.05;2.22;;;;;;;;;;5008371;28;20210;-77
2023/09/21 06:49:29;;;;;;;4.05;2.67;;;;;;;;;;5004612;28;20259;-77
2023/09/21 06:51:58;;;;;;;4.63;2.28;;;;;;;;;;4999723;28;20259;-79
2023/09/21 06:54:27;;;;;;;4.57;2.30;;;;;;;;;;4998001;28;20220;-78
2023/09/21 06:57:03;;;;;;;2.25;2.03;;;;;;;;;;5000463;28;20218;-77
2023/09/21 06:59:34;;;;;;;2.47;2.28;;;;;;;;;;4998134;28;20707;-79
2023/09/21 07:02:03;;;;;;;2.33;2.10;;;;;;;;;;4999247;28;20204;-78
2023/09/21 07:04:33;;;;;;;2.85;2.65;;;;;;;;;;5009867;28;20681;-78
2023/09/21 07:07:04;;;;;;;4.25;2.50;;;;;;;;;;5014968;28;20210;-79
2023/09/21 07:09:34;;;;;;;3.53;2.30;;;;;;;;;;4993160;28;20206;-81
2023/09/21 07:12:02;;;;;;;3.20;2.67;;;;;;;;;;5005443;28;20210;-78
2023/09/21 07:14:32;;;;;;;5.15;2.22;;;;;;;;;;5005371;28;20220;-79
2023/09/21 07:17:00;;;;;;;3.60;2.35;;;;;;;;;;5014416;28;20207;-80
2023/09/21 07:19:28;;;;;;;2.28;2.17;;;;;;;;;;5005257;28;20572;-78
2023/09/21 07:21:56;;;;;;;2.50;2.30;;;;;;;;;;4998046;28;20577;-80
2023/09/21 07:24:24;;;;;;;2.63;2.42;;;;;;;;;;5016318;28;20262;-79
2023/09/21 07:26:53;;;;;;;2.47;2.28;;;;;;;;;;4998035;28;20206;-77
2023/09/21 07:29:22;;;;;;;2.75;2.10;;;;;;;;;;4991573;28;20211;-80
2023/09/21 07:31:49;;;;;;;2.40;1.95;;;;;;;;;;4989284;28;20689;-78
2023/09/21 07:34:17;;;;;;;2.47;1.90;;;;;;;;;;5008951;28;20228;-78
2023/09/21 07:36:46;;;;;;;2.38;1.92;;;;;;;;;;5006753;28;20840;-78
2023/09/21 07:39:17;;;;;;;1.58;1.48;;;;;;;;;;4998394;28;20264;-79
2023/09/21 07:41:46;;;;;;;1.88;1.65;;;;;;;;;;5005820;28;20199;-81
2023/09/21 07:44:16;;;;;;;1.85;1.73;;;;;;;;;;5004971;28;20767;-80
2023/09/21 07:46:44;;;;;;;2.25;1.77;;;;;;;;;;5006320;28;20223;-79
2023/09/21 07:49:13;;;;;;;1.60;1.50;;;;;;;;;;5010248;28;20270;-81
2023/09/21 07:51:41;;;;;;;1.60;1.50;;;;;;;;;;5005139;28;20203;-80
2023/09/21 07:54:08;;;;;;;2.45;1.60;;;;;;;;;;5010413;28;20220;-80
2023/09/21 07:56:42;;;;;;;2.55;1.42;;;;;;;;;;5004483;28;20315;-80
2023/09/21 07:59:12;;;;;;;1.52;1.40;;;;;;;;;;4998198;28;20208;-80
2023/09/21 08:01:40;;;;;;;2.17;1.50;;;;;;;;;;4989462;28;20742;-80
2023/09/21 08:04:08;;;;;;;2.92;1.70;;;;;;;;;;5009817;28;20224;-81
2023/09/21 08:06:35;;;;;;;2.28;1.38;;;;;;;;;;5010859;28;20228;-78
2023/09/21 08:09:03;;;;;;;1.80;1.70;;;;;;;;;;5004029;28;20373;-79
2023/09/21 08:11:41;;;;;;;4.22;1.80;;;;;;;;;;5011250;28;20286;-80
2023/09/21 08:14:09;;;;;;;1.50;1.40;;;;;;;;;;5010699;28;20242;-82
2023/09/21 08:16:38;;;;;;;1.75;1.65;;;;;;;;;;5005496;28;20256;-79
2023/09/21 08:19:06;;;;;;;3.65;1.55;;;;;;;;;;4987209;28;20279;-80
2023/09/21 08:21:33;;;;;;;2.67;1.55;;;;;;;;;;4993394;28;20274;-80
2023/09/21 08:24:01;;;;;;;3.70;1.80;;;;;;;;;;5006797;28;20223;-79
2023/09/21 08:26:29;;;;;;;4.40;1.52;;;;;;;;;;5012500;28;20227;-80
2023/09/21 08:28:58;;;;;;;3.90;1.70;;;;;;;;;;5013038;28;20295;-82
2023/09/21 08:31:25;;;;;;;4.03;1.70;;;;;;;;;;5014447;28;20208;-79
2023/09/21 08:33:53;;;;;;;5.90;1.77;;;;;;;;;;5008247;28;20220;-82
2023/09/21 08:36:20;;;;;;;4.55;1.48;;;;;;;;;;5011070;28;20235;-81
2023/09/21 08:38:48;;;;;;;2.90;1.83;;;;;;;;;;4987473;28;20286;-80
2023/09/21 08:41:16;;;;;;;3.63;1.60;;;;;;;;;;5007958;28;20656;-82
2023/09/21 08:43:44;;;;;;;1.60;1.50;;;;;;;;;;5012166;28;20224;-82
2023/09/21 08:46:14;;;;;;;3.20;1.40;;;;;;;;;;5016503;28;20232;-81
2023/09/21 08:48:41;;;;;;;3.00;1.52;;;;;;;;;;4995482;28;20207;-81
2023/09/21 08:51:11;;;;;;;1.63;1.52;;;;;;;;;;5010188;28;20211;-81
2023/09/21 08:53:39;;;;;;;1.70;1.60;;;;;;;;;;5005650;28;20688;-81
2023/09/21 08:56:08;;;;;;;1.77;1.30;;;;;;;;;;5001841;28;20367;-82
2023/09/21 08:58:40;;;;;;;3.10;1.65;;;;;;;;;;5001499;28;20216;-82
2023/09/21 09:01:08;;;;;;;5.00;1.60;;;;;;;;;;5014504;28;20199;-81
2023/09/21 09:03:36;;;;;;;3.08;1.80;;;;;;;;;;5007396;28;20228;-80
2023/09/21 09:06:04;;;;;;;2.17;1.77;;;;;;;;;;5014570;28;20266;-82
2023/09/21 09:08:31;;;;;;;3.67;1.45;;;;;;;;;;5010774;28;20342;-81
2023/09/21 09:10:59;;;;;;;1.95;1.50;;;;;;;;;;5017549;28;20207;-81
2023/09/21 09:13:32;;;;;;;2.22;1.65;;;;;;;;;;5013370;28;20228;-79
2023/09/21 09:16:00;;;;;;;4.63;1.60;;;;;;;;;;4990673;28;20205;-82
2023/09/21 09:18:27;;;;;;;1.80;1.70;;;;;;;;;;4998594;28;20234;-82
2023/09/21 09:20:55;;;;;;;2.17;1.38;;;;;;;;;;5010790;28;20671;-80
2023/09/21 09:23:23;;;;;;;4.28;1.48;;;;;;;;;;5010065;28;20272;-80
2023/09/21 09:25:51;;;;;;;2.92;1.30;;;;;;;;;;5013583;28;20238;-83
2023/09/21 09:28:18;;;;;;;6.50;1.70;;;;;;;;;;5004560;28;20207;-82
2023/09/21 09:30:48;;;;;;;3.50;1.48;;;;;;;;;;5006448;28;20254;-82
2023/09/21 09:33:16;;;;;;;1.88;1.38;;;;;;;;;;5008462;28;20226;-80
2023/09/21 09:35:45;;;;;;;2.03;1.50;;;;;;;;;;5009478;28;20571;-81
2023/09/21 09:38:15;;;;;;;1.63;1.50;;;;;;;;;;5010042;28;20212;-82
2023/09/21 09:40:43;;;;;;;2.92;1.85;;;;;;;;;;4991960;28;20243;-80
2023/09/21 09:43:12;;;;;;;2.17;1.30;;;;;;;;;;5009435;28;20258;-81
2023/09/21 09:45:40;;;;;;;2.85;1.60;;;;;;;;;;5006479;28;20724;-81
2023/09/21 09:48:11;;;;;;;1.30;1.20;;;;;;;;;;5009520;28;20200;-82
2023/09/21 09:50:41;;;;;;;1.90;1.30;;;;;;;;;;5006207;28;20204;-82
2023/09/21 09:53:13;;;;;;;1.48;1.38;;;;;;;;;;5008027;28;20223;-81
2023/09/21 09:55:44;;;;;;;1.83;1.52;;;;;;;;;;4998537;28;20328;-82
2023/09/21 09:58:12;;;;;;;1.90;1.30;;;;;;;;;;5003305;28;20214;-80
2023/09/21 10:00:44;;;;;;;1.92;1.42;;;;;;;;;;5010996;28;20200;-81
2023/09/21 10:03:13;;;;;;;1.70;1.38;;;;;;;;;;5009774;28;20285;-82
2023/09/21 10:05:42;;;;;;;2.10;1.20;;;;;;;;;;5006887;28;20220;-81
2023/09/21 10:08:10;;;;;;;1.08;1.00;;;;;;;;;;5014182;28;20655;-81
2023/09/21 10:10:44;;;;;;;1.30;1.20;;;;;;;;;;5006435;28;20255;-81
2023/09/21 10:13:12;;;;;;;1.20;1.10;;;;;;;;;;4997253;28;20231;-80
2023/09/21 10:15:41;;;;;;;1.30;1.20;;;;;;;;;;5006556;28;20208;-81
2023/09/21 10:18:09;;;;;;;1.88;1.38;;;;;;;;;;5009237;28;20204;-81
2023/09/21 10:20:37;;;;;;;1.77;1.40;;;;;;;;;;5009378;28;20675;-81
2023/09/21 10:23:09;;;;;;;1.30;1.30;;;;;;;;;;5009832;28;20232;-80
2023/09/21 10:25:41;;;;;;;1.35;1.20;;;;;;;;;;5010139;28;20231;-82
2023/09/21 10:28:27;;;;;;;1.60;1.30;;;;;;;;;;5004194;28;20210;-81
2023/09/21 10:30:55;;;;;;;1.50;1.38;;;;;;;;;;5004979;28;20204;-80
2023/09/21 10:33:25;;;;;;;1.20;1.10;;;;;;;;;;5009325;28;20327;-83
2023/09/21 10:35:53;;;;;;;2.10;1.35;;;;;;;;;;5010926;28;20212;-83
2023/09/21 10:38:21;;;;;;;2.00;1.05;;;;;;;;;;5007524;28;20661;-83
2023/09/21 10:40:49;;;;;;;3.70;1.40;;;;;;;;;;4997198;28;20207;-82
2023/09/21 10:43:35;;;;;;;2.05;1.40;;;;;;;;;;5000491;28;20243;-82
2023/09/21 10:46:06;;;;;;;3.33;1.25;;;;;;;;;;5009071;28;20231;-80
2023/09/21 10:48:34;;;;;;;2.25;1.20;;;;;;;;;;5010819;28;20673;-79
2023/09/21 10:51:03;;;;;;;1.33;0.88;;;;;;;;;;5006629;28;20279;-81
2023/09/21 10:53:34;;;;;;;2.92;1.10;;;;;;;;;;5009512;28;20242;-83
2023/09/21 10:56:02;;;;;;;2.15;1.20;;;;;;;;;;4991963;28;20234;-83
2023/09/21 10:58:33;;;;;;;1.10;1.00;;;;;;;;;;5007491;28;20683;-82
2023/09/21 11:01:01;;;;;;;1.02;1.00;;;;;;;;;;5007135;28;20211;-82
2023/09/21 11:03:29;;;;;;;1.10;0.80;;;;;;;;;;5009223;28;20228;-80
2023/09/21 11:05:57;;;;;;;1.83;1.00;;;;;;;;;;5006624;28;20273;-81
2023/09/21 11:08:25;;;;;;;1.10;0.90;;;;;;;;;;5008263;28;20207;-82
2023/09/21 11:10:52;;;;;;;2.30;1.05;;;;;;;;;;5010861;28;20544;-80
2023/09/21 11:13:20;;;;;;;1.52;1.08;;;;;;;;;;4990899;28;20238;-82
2023/09/21 11:15:47;;;;;;;1.75;1.00;;;;;;;;;;5009026;28;20230;-80
2023/09/21 11:18:15;;;;;;;3.53;1.27;;;;;;;;;;4995280;28;20211;-81
2023/09/21 11:20:44;;;;;;;1.77;1.10;;;;;;;;;;5006337;28;20200;-83
2023/09/21 11:23:12;;;;;;;1.08;1.08;;;;;;;;;;5007653;28;20235;-80
2023/09/21 11:25:39;;;;;;;1.88;1.25;;;;;;;;;;5009521;28;20269;-81
2023/09/21 11:28:06;;;;;;;2.67;1.10;;;;;;;;;;5009041;28;20272;-82
2023/09/21 11:30:35;;;;;;;1.77;1.20;;;;;;;;;;5001060;28;20204;-81
2023/09/21 11:33:04;;;;;;;1.73;1.10;;;;;;;;;;5012447;28;20222;-81
2023/09/21 11:35:32;;;;;;;1.70;1.33;;;;;;;;;;5014357;28;20199;-81
2023/09/21 11:38:00;;;;;;;2.22;1.30;;;;;;;;;;5009335;28;20238;-82
2023/09/21 11:40:27;;;;;;;1.20;1.10;;;;;;;;;;4994722;28;20215;-80
2023/09/21 11:42:59;;;;;;;2.80;1.25;;;;;;;;;;5006498;28;20242;-81
2023/09/21 11:45:27;;;;;;;2.05;1.17;;;;;;;;;;5009246;28;20200;-81
2023/09/21 11:47:56;;;;;;;1.63;1.20;;;;;;;;;;5008979;28;20234;-80
2023/09/21 11:50:25;;;;;;;3.92;1.27;;;;;;;;;;4990739;28;20711;-81
2023/09/21 11:52:54;;;;;;;1.15;1.00;;;;;;;;;;5006583;28;20220;-81
2023/09/21 11:55:25;;;;;;;2.05;1.10;;;;;;;;;;5016792;28;20204;-80
2023/09/21 11:57:54;;;;;;;1.40;1.10;;;;;;;;;;5011008;28;20635;-82
2023/09/21 12:00:38;;;;;;;1.00;1.00;;;;;;;;;;4994487;28;20203;-81
2023/09/21 12:03:07;;;;;;;0.98;0.88;;;;;;;;;;5017633;28;20219;-81
2023/09/21 12:05:35;;;;;;;0.82;0.80;;;;;;;;;;5012790;28;21164;-82
2023/09/21 12:08:07;;;;;;;1.20;1.10;;;;;;;;;;5012725;28;20219;-81
2023/09/21 12:10:35;;;;;;;1.30;1.20;;;;;;;;;;5013243;28;20227;-81
2023/09/21 12:13:03;;;;;;;3.10;1.13;;;;;;;;;;5012982;28;20702;-80
2023/09/21 12:15:32;;;;;;;3.92;1.10;;;;;;;;;;4991552;28;20281;-83
2023/09/21 12:18:01;;;;;;;1.23;1.02;;;;;;;;;;4999023;28;20204;-81
2023/09/21 12:20:28;;;;;;;0.88;0.88;;;;;;;;;;5007216;28;20262;-80
2023/09/21 12:22:56;;;;;;;2.03;1.38;;;;;;;;;;5016888;28;20628;-80
2023/09/21 12:25:24;;;;;;;1.27;1.05;;;;;;;;;;4999734;28;20218;-83
2023/09/21 12:27:52;;;;;;;1.30;0.93;;;;;;;;;;5009771;28;20288;-82
2023/09/21 12:30:20;;;;;;;2.03;1.23;;;;;;;;;;5008447;28;20208;-82
2023/09/21 12:32:49;;;;;;;1.27;1.17;;;;;;;;;;5009562;28;20718;-81
2023/09/21 12:35:25;;;;;;;0.90;0.90;;;;;;;;;;5017160;28;20215;-83
2023/09/21 12:37:52;;;;;;;2.20;0.93;;;;;;;;;;5016667;28;20264;-81
2023/09/21 12:40:22;;;;;;;1.95;1.00;;;;;;;;;;5006954;28;20687;-81
2023/09/21 12:42:49;;;;;;;2.58;1.30;;;;;;;;;;5013188;28;20219;-81
2023/09/21 12:45:23;;;;;;;1.42;1.00;;;;;;;;;;4992556;28;20290;-81
2023/09/21 12:47:51;;;;;;;1.08;1.00;;;;;;;;;;5007320;28;20725;-82
2023/09/21 12:50:19;;;;;;;1.15;1.05;;;;;;;;;;4995134;28;20219;-84
2023/09/21 12:52:48;;;;;;;1.10;1.00;;;;;;;;;;5013255;28;20229;-80
2023/09/21 12:55:16;;;;;;;1.02;1.02;;;;;;;;;;5006158;28;20734;-82
2023/09/21 12:57:43;;;;;;;1.30;1.20;;;;;;;;;;5014610;28;20204;-80
2023/09/21 13:00:13;;;;;;;2.30;1.20;;;;;;;;;;4998776;28;20307;-81
2023/09/21 13:02:43;;;;;;;1.58;1.45;;;;;;;;;;5004428;28;20311;-79
2023/09/21 13:05:13;;;;;;;0.95;0.90;;;;;;;;;;5016107;28;20219;-82
2023/09/21 13:07:42;;;;;;;0.95;0.80;;;;;;;;;;5006761;28;20699;-82
2023/09/21 13:10:10;;;;;;;2.05;1.25;;;;;;;;;;5016311;28;20656;-82
2023/09/21 13:12:39;;;;;;;0.95;0.88;;;;;;;;;;5011702;28;20681;-81
2023/09/21 13:15:07;;;;;;;2.33;1.33;;;;;;;;;;5016200;28;20215;-81
2023/09/21 13:17:37;;;;;;;3.47;1.20;;;;;;;;;;5004667;28;20238;-83
2023/09/21 13:20:07;;;;;;;1.23;1.20;;;;;;;;;;5008197;28;20687;-82
2023/09/21 13:22:35;;;;;;;1.13;1.08;;;;;;;;;;5006861;28;20293;-81
2023/09/21 13:25:03;;;;;;;3.70;1.30;;;;;;;;;;4996639;28;20676;-81
2023/09/21 13:27:30;;;;;;;2.72;1.75;;;;;;;;;;5008464;28;20232;-81
2023/09/21 13:29:57;;;;;;;1.95;1.20;;;;;;;;;;5003840;28;20223;-81
2023/09/21 13:32:25;;;;;;;2.03;1.90;;;;;;;;;;5011171;28;20652;-80
2023/09/21 13:34:54;;;;;;;2.65;1.05;;;;;;;;;;5015276;28;20703;-83
2023/09/21 13:37:21;;;;;;;2.45;1.38;;;;;;;;;;5007701;28;20250;-81
2023/09/21 13:39:48;;;;;;;2.55;1.35;;;;;;;;;;5015143;28;20211;-82
2023/09/21 13:42:16;;;;;;;2.33;1.40;;;;;;;;;;5015406;28;20711;-82
2023/09/21 13:44:44;;;;;;;2.60;1.60;;;;;;;;;;5015068;28;20214;-81
2023/09/21 13:47:11;;;;;;;3.00;1.30;;;;;;;;;;5014674;28;20794;-81
2023/09/21 13:49:39;;;;;;;3.67;1.27;;;;;;;;;;5012110;28;20242;-81
2023/09/21 13:52:07;;;;;;;4.50;1.40;;;;;;;;;;5014339;28;20219;-81
2023/09/21 13:54:34;;;;;;;3.15;1.02;;;;;;;;;;5015323;28;20219;-81
2023/09/21 13:57:02;;;;;;;1.67;1.23;;;;;;;;;;5015842;28;20580;-82
2023/09/21 13:59:30;;;;;;;2.58;1.17;;;;;;;;;;5015927;28;20218;-79
2023/09/21 14:01:57;;;;;;;2.05;1.38;;;;;;;;;;5014724;28;20208;-80
2023/09/21 14:04:25;;;;;;;4.38;1.15;;;;;;;;;;5007028;28;20255;-81
2023/09/21 14:06:53;;;;;;;2.25;1.30;;;;;;;;;;5010951;28;20231;-81
2023/09/21 14:09:20;;;;;;;1.42;1.20;;;;;;;;;;5011058;28;20210;-80
2023/09/21 14:11:48;;;;;;;1.52;1.27;;;;;;;;;;5011591;28;20203;-81
2023/09/21 14:14:15;;;;;;;3.67;1.30;;;;;;;;;;5014504;28;20227;-82
2023/09/21 14:16:43;;;;;;;1.90;1.30;;;;;;;;;;5014213;28;20211;-81
2023/09/21 14:19:10;;;;;;;3.20;1.50;;;;;;;;;;5015186;28;20203;-80
2023/09/21 14:21:37;;;;;;;2.20;1.35;;;;;;;;;;5008364;28;20244;-79
2023/09/21 14:24:06;;;;;;;2.30;1.40;;;;;;;;;;5010162;28;20230;-80
2023/09/21 14:26:34;;;;;;;3.00;1.25;;;;;;;;;;5014834;28;20215;-81
2023/09/21 14:29:01;;;;;;;2.38;1.20;;;;;;;;;;5014582;28;20204;-80
2023/09/21 14:31:29;;;;;;;3.38;1.40;;;;;;;;;;4996254;28;20200;-79
2023/09/21 14:33:56;;;;;;;1.40;1.25;;;;;;;;;;5010691;28;20223;-80
2023/09/21 14:36:25;;;;;;;1.40;1.30;;;;;;;;;;5013312;28;20254;-82
2023/09/21 14:38:52;;;;;;;3.65;1.50;;;;;;;;;;5010292;28;20667;-81
2023/09/21 14:41:20;;;;;;;1.95;1.17;;;;;;;;;;5014162;28;20595;-80
2023/09/21 14:43:47;;;;;;;3.13;1.50;;;;;;;;;;5010344;28;20239;-80
2023/09/21 14:46:16;;;;;;;2.05;1.38;;;;;;;;;;5013865;28;20535;-80
2023/09/21 14:48:43;;;;;;;3.25;1.48;;;;;;;;;;5011801;28;20835;-80
2023/09/21 14:51:11;;;;;;;2.35;1.80;;;;;;;;;;4996516;28;20645;-82
2023/09/21 14:53:38;;;;;;;3.13;1.40;;;;;;;;;;5011415;28;20223;-81
2023/09/21 14:56:06;;;;;;;2.28;1.75;;;;;;;;;;5009091;28;20325;-82